Time;durP1;ratioP1;P1;durP2;ratioP2;P2;SDS_P1;SDS_P2;PMS_P1;PMS_P2;Temp;Humidity;BMP_temperature;BMP_pressure;BME280_temperature;BME280_humidity;BME280_pressure;Samples;Min_cycle;Max_cycle;Signal;HPM_P1;HPM_P2
2022/07/28 00:02:14;;;;;;;;;5.33;2.00;;;;;22.98;41.27;101321.94;5080961;28;66587;-71
2022/07/28 00:04:40;;;;;;;;;3.67;2.67;;;;;22.95;41.62;101315.75;5079402;28;68097;-73
2022/07/28 00:07:05;;;;;;;;;3.00;1.67;;;;;22.93;41.76;101320.34;5079832;28;53918;-71
2022/07/28 00:09:30;;;;;;;;;1.00;1.00;;;;;22.88;41.64;101311.50;5079432;28;61221;-72
2022/07/28 00:11:56;;;;;;;;;5.00;3.33;;;;;22.87;41.65;101310.59;5079932;28;45504;-71
2022/07/28 00:14:22;;;;;;;;;2.33;2.33;;;;;22.86;41.74;101314.25;5080101;28;45335;-70
2022/07/28 00:16:47;;;;;;;;;2.00;2.00;;;;;22.84;41.94;101317.88;5079994;28;45268;-72
2022/07/28 00:19:13;;;;;;;;;2.00;2.00;;;;;22.84;42.15;101315.19;5079191;28;58346;-73
2022/07/28 00:21:38;;;;;;;;;2.00;2.00;;;;;22.84;41.99;101315.19;5079063;28;68206;-72
2022/07/28 00:24:03;;;;;;;;;3.33;1.33;;;;;22.80;42.04;101298.28;5079024;28;59645;-70
2022/07/28 00:26:29;;;;;;;;;2.00;2.00;;;;;22.79;42.14;101301.00;5080021;28;45299;-71
2022/07/28 00:28:55;;;;;;;;;2.00;2.00;;;;;22.74;41.94;101298.44;5079962;28;45475;-71
2022/07/28 00:31:20;;;;;;;;;3.67;1.00;;;;;22.69;42.37;101287.84;5079091;28;68027;-72
2022/07/28 00:33:45;;;;;;;;;1.00;1.00;;;;;22.67;42.17;101283.44;5079197;28;60870;-71
2022/07/28 00:36:12;;;;;;;;;4.00;2.00;;;;;;;;5061945;28;45338;-72
2022/07/28 00:38:37;;;;;;;;;2.67;1.33;;;;;22.65;42.26;101277.22;5079743;28;45487;-71
2022/07/28 00:41:12;;;;;;;;;4.67;2.00;;;;;22.61;42.47;101279.13;5079446;28;47659;-73
2022/07/28 00:43:43;;;;;;;;;4.00;2.00;;;;;22.62;42.32;101278.19;5079405;28;45368;-72
2022/07/28 00:46:09;;;;;;;;;3.67;2.00;;;;;22.58;42.76;101268.44;5079293;28;45396;-72
2022/07/28 00:48:39;;;;;;;;;2.67;1.00;;;;;22.54;42.61;101276.69;5077966;28;45619;-71
2022/07/28 00:51:05;;;;;;;;;1.00;1.00;;;;;22.53;43.41;101278.50;5061139;28;45767;-71
2022/07/28 00:53:30;;;;;;;;;2.33;2.33;;;;;22.50;42.94;101273.22;5060941;28;45746;-71
2022/07/28 00:55:57;;;;;;;;;1.00;1.00;;;;;22.52;42.90;101279.41;5078389;28;60897;-71
2022/07/28 00:58:22;;;;;;;;;3.00;1.00;;;;;22.49;43.18;101274.16;5060696;28;61164;-71
2022/07/28 01:00:47;;;;;;;;;2.00;2.00;;;;;22.50;43.15;101267.81;5078529;28;69974;-71
2022/07/28 01:03:13;;;;;;;;;2.00;1.00;;;;;22.48;42.92;101265.19;5078215;28;66592;-72
2022/07/28 01:06:03;;;;;;;;;1.33;1.33;;;;;22.48;43.18;101265.19;5060545;28;64166;-71
2022/07/28 01:08:51;;;;;;;;;1.00;1.00;;;;;22.47;43.39;101267.91;5078291;28;45567;-72
2022/07/28 01:11:41;;;;;;;;;2.00;2.00;;;;;22.46;43.55;101266.16;5079062;28;46217;-72
2022/07/28 01:14:09;;;;;;;;;3.00;3.00;;;;;22.43;43.71;101259.06;5079060;28;45348;-70
2022/07/28 01:16:43;;;;;;;;;4.67;3.00;;;;;22.43;43.78;101261.75;5079226;28;45261;-72
2022/07/28 01:19:14;;;;;;;;;4.00;3.00;;;;;22.40;43.23;101253.78;5061100;28;45328;-70
2022/07/28 01:21:41;;;;;;;;;2.67;2.33;;;;;22.42;43.46;101256.41;5078970;28;46912;-72
2022/07/28 01:24:22;;;;;;;;;3.00;3.00;;;;;22.38;43.83;101255.66;5060793;28;45493;-70
2022/07/28 01:26:58;;;;;;;;;3.00;3.00;;;;;22.39;43.78;101251.13;5060869;28;45464;-72
2022/07/28 01:29:42;;;;;;;;;4.00;3.00;;;;;22.35;43.83;101253.03;5061164;28;45303;-71
2022/07/28 01:32:12;;;;;;;;;2.33;2.00;;;;;22.32;43.64;101252.25;5078849;28;45385;-72
2022/07/28 01:34:52;;;;;;;;;2.67;2.67;;;;;22.28;43.85;101250.59;5060837;28;45276;-71
2022/07/28 01:37:20;;;;;;;;;2.00;2.00;;;;;22.25;44.27;101248.88;5060832;28;45279;-72
2022/07/28 01:39:46;;;;;;;;;2.00;2.00;;;;;22.24;43.97;101249.78;5060893;28;45303;-70
2022/07/28 01:42:12;;;;;;;;;3.00;3.00;;;;;22.22;43.82;101257.03;5060458;28;46950;-72
2022/07/28 01:44:41;;;;;;;;;3.00;3.00;;;;;22.24;44.05;101255.19;5059727;28;66862;-72
2022/07/28 01:47:07;;;;;;;;;4.00;3.00;;;;;22.19;44.28;101252.63;5060390;28;45489;-70
2022/07/28 01:49:34;;;;;;;;;2.00;2.00;;;;;22.18;44.32;101252.69;5060574;28;45150;-70
2022/07/28 01:52:01;;;;;;;;;2.00;2.00;;;;;22.18;44.54;101248.19;5060462;28;47511;-71
2022/07/28 01:54:28;;;;;;;;;2.00;2.00;;;;;22.18;44.62;101244.59;5078151;28;46525;-72
2022/07/28 01:56:54;;;;;;;;;2.00;2.00;;;;;22.14;44.77;101237.56;5059594;28;55625;-73
2022/07/28 01:59:21;;;;;;;;;2.67;2.67;;;;;22.17;44.62;101250.91;5060306;28;45267;-71
2022/07/28 02:01:47;;;;;;;;;3.00;2.00;;;;;22.15;44.82;101244.69;5059615;28;66388;-72
2022/07/28 02:04:14;;;;;;;;;1.67;1.67;;;;;22.18;44.81;101239.22;5060231;28;45240;-71
2022/07/28 02:06:40;;;;;;;;;1.67;1.67;;;;;22.16;44.79;101239.28;5060057;28;45496;-72
2022/07/28 02:09:07;;;;;;;;;2.67;1.00;;;;;22.15;44.87;101233.94;5059946;28;57154;-72
2022/07/28 02:11:40;;;;;;;;;1.00;1.00;;;;;22.13;44.95;101233.09;5077735;28;58535;-72
2022/07/28 02:14:24;;;;;;;;;2.33;2.33;;;;;22.08;45.02;101229.63;5060756;28;45358;-73
2022/07/28 02:16:56;;;;;;;;;1.00;1.00;;;;;22.06;44.85;101228.81;5060120;28;45540;-71
2022/07/28 02:19:23;;;;;;;;;1.00;1.00;;;;;22.05;45.16;101224.34;5060061;28;45564;-71
2022/07/28 02:21:49;;;;;;;;;2.00;2.00;;;;;22.05;45.17;101221.66;5060064;28;47078;-72
2022/07/28 02:24:18;;;;;;;;;1.00;1.00;;;;;22.05;44.95;101222.56;5059828;28;45568;-72
2022/07/28 02:26:51;;;;;;;;;1.00;1.00;;;;;22.00;45.37;101208.38;5059830;28;45315;-71
2022/07/28 02:29:18;;;;;;;;;2.00;2.00;;;;;21.97;45.26;101208.44;5060094;28;45399;-71
2022/07/28 02:31:50;;;;;;;;;2.00;2.00;;;;;22.01;45.27;101210.13;5077787;28;45902;-72
2022/07/28 02:34:22;;;;;;;;;2.33;1.33;;;;;22.00;45.58;101212.84;5059884;28;45372;-73
2022/07/28 02:37:08;;;;;;;;;3.00;2.00;;;;;22.01;45.99;101214.63;5059806;28;45300;-71
2022/07/28 02:39:43;;;;;;;;;2.00;2.00;;;;;21.98;45.88;101207.53;5060195;28;45451;-72
2022/07/28 02:42:13;;;;;;;;;2.00;2.00;;;;;21.98;45.39;101207.53;5059330;28;46722;-71
2022/07/28 02:44:42;;;;;;;;;3.00;2.00;;;;;21.95;46.04;101205.81;5059645;28;45374;-71
2022/07/28 02:47:11;;;;;;;;;1.33;1.33;;;;;21.99;45.79;101206.59;5059299;28;45623;-71
2022/07/28 02:49:38;;;;;;;;;2.00;2.00;;;;;21.96;45.97;101196.81;5059384;28;45542;-71
2022/07/28 02:52:06;;;;;;;;;3.67;2.00;;;;;22.00;46.00;101202.09;5059398;28;47196;-72
2022/07/28 02:54:33;;;;;;;;;2.33;2.33;;;;;21.97;45.91;101201.25;5059189;28;45299;-72
2022/07/28 02:56:59;;;;;;;;;4.00;2.67;;;;;21.96;45.94;101204.88;5058333;28;45550;-72
2022/07/28 02:59:25;;;;;;;;;3.67;3.00;;;;;21.95;46.30;101202.25;5059739;28;45319;-71
2022/07/28 03:01:51;;;;;;;;;3.00;3.00;;;;;21.94;46.30;101208.53;5059269;28;45453;-72
2022/07/28 03:04:55;;;;;;;;;3.00;2.00;;;;;21.93;46.26;101206.78;5077349;28;45826;-72
2022/07/28 03:07:04;;;;;;;;;2.00;2.00;;;;;21.94;46.26;101205.84;5077242;28;45232;-71
2022/07/28 03:09:29;;;;;;;;;2.00;2.00;;;;;21.90;46.18;101197.00;5077440;28;45560;-72
2022/07/28 03:11:55;;;;;;;;;2.00;2.00;;;;;21.93;46.44;101199.59;5076594;28;45439;-71
2022/07/28 03:14:20;;;;;;;;;4.00;2.00;;;;;21.92;46.32;101194.25;5076617;28;62201;-71
2022/07/28 03:16:45;;;;;;;;;3.00;2.00;;;;;21.89;46.51;101202.41;5076624;28;57189;-72
2022/07/28 03:19:11;;;;;;;;;2.00;2.00;;;;;21.91;46.84;101208.63;5076652;28;57505;-71
2022/07/28 03:21:37;;;;;;;;;1.33;1.33;;;;;21.91;46.27;101211.34;5077410;28;46325;-71
2022/07/28 03:24:03;;;;;;;;;3.00;2.00;;;;;21.91;46.88;101214.03;5077028;28;45398;-71
2022/07/28 03:26:40;;;;;;;;;2.00;2.00;;;;;21.88;46.61;101214.97;5059222;28;45342;-71
2022/07/28 03:29:06;;;;;;;;;1.00;1.00;;;;;21.86;46.43;101206.09;5077208;28;45373;-72
2022/07/28 03:31:33;;;;;;;;;2.00;2.00;;;;;21.86;46.59;101203.41;5058942;28;46625;-72
2022/07/28 03:33:59;;;;;;;;;2.00;2.00;;;;;21.85;46.65;101207.03;5058926;28;45265;-72
2022/07/28 03:36:30;;;;;;;;;1.67;1.67;;;;;21.85;46.72;101201.63;5077086;28;45492;-71
2022/07/28 03:38:58;;;;;;;;;1.00;1.00;;;;;21.83;46.60;101200.78;5059108;28;45495;-72
2022/07/28 03:41:24;;;;;;;;;3.00;1.00;;;;;21.82;46.64;101195.47;5058746;28;45503;-72
2022/07/28 03:43:49;;;;;;;;;3.00;3.00;;;;;21.81;46.62;101194.59;5058762;28;50671;-72
2022/07/28 03:46:15;;;;;;;;;2.00;2.00;;;;;21.79;47.17;101198.25;5058645;28;45418;-72
2022/07/28 03:48:40;;;;;;;;;2.00;2.00;;;;;21.80;47.03;101200.03;5075889;28;62796;-73
2022/07/28 03:51:05;;;;;;;;;1.67;1.67;;;;;21.79;47.07;101198.25;5077128;28;46927;-72
2022/07/28 03:53:31;;;;;;;;;2.00;2.00;;;;;21.76;46.73;101191.16;5076096;28;45534;-72
2022/07/28 03:55:56;;;;;;;;;1.00;1.00;;;;;21.78;46.71;101202.72;5075977;28;62642;-72
2022/07/28 03:58:26;;;;;;;;;3.00;2.00;;;;;21.75;46.77;101200.16;5076691;28;45217;-72
2022/07/28 04:00:51;;;;;;;;;3.00;1.00;;;;;21.70;47.39;101197.59;5059002;28;46455;-71
2022/07/28 04:03:18;;;;;;;;;2.00;2.00;;;;;21.70;47.02;101199.41;5058554;28;45349;-71
2022/07/28 04:05:43;;;;;;;;;1.67;1.67;;;;;21.72;47.31;101202.91;5076654;28;45335;-71
2022/07/28 04:08:09;;;;;;;;;1.33;1.33;;;;;21.71;47.46;101207.41;5076530;28;45376;-72
2022/07/28 04:10:35;;;;;;;;;2.00;2.00;;;;;21.71;47.22;101206.53;5076157;28;65654;-69
2022/07/28 04:13:00;;;;;;;;;0.67;0.67;;;;;21.68;47.39;101212.00;5058285;28;45347;-70
2022/07/28 04:15:26;;;;;;;;;1.67;1.67;;;;;21.64;47.33;101207.66;5076305;28;46021;-72
2022/07/28 04:17:53;;;;;;;;;3.00;2.00;;;;;21.62;47.30;101206.78;5076571;28;45609;-71
2022/07/28 04:20:21;;;;;;;;;2.00;2.00;;;;;21.55;47.79;101197.16;5076434;28;46165;-71
2022/07/28 04:22:47;;;;;;;;;2.33;1.33;;;;;21.60;47.78;101200.59;5078146;28;45265;-70
2022/07/28 04:25:14;;;;;;;;;1.00;1.00;;;;;21.56;47.39;101198.91;5080100;28;45520;-72
2022/07/28 04:27:40;;;;;;;;;2.00;2.00;;;;;21.56;47.77;101194.41;5066968;28;45354;-73
2022/07/28 04:30:15;;;;;;;;;2.00;1.00;;;;;21.54;48.00;101190.91;5079839;28;46819;-71
2022/07/28 04:32:42;;;;;;;;;1.00;1.00;;;;;21.53;47.98;101191.84;5079953;28;45326;-72
2022/07/28 04:35:08;;;;;;;;;1.33;1.33;;;;;21.55;48.11;101199.84;5079979;28;45339;-70
2022/07/28 04:37:34;;;;;;;;;2.67;2.00;;;;;21.53;47.77;101199.91;5061816;28;45428;-72
2022/07/28 04:39:59;;;;;;;;;1.00;1.00;;;;;21.51;47.62;101196.34;5079647;28;46287;-71
2022/07/28 04:42:24;;;;;;;;;2.00;2.00;;;;;21.54;48.00;101198.09;5078694;28;67874;-72
2022/07/28 04:44:50;;;;;;;;;2.33;1.00;;;;;21.52;48.15;101190.06;5079496;28;45450;-71
2022/07/28 04:47:16;;;;;;;;;3.00;2.00;;;;;21.51;48.26;101182.03;5079389;28;45537;-71
2022/07/28 04:49:41;;;;;;;;;2.33;1.33;;;;;21.52;48.31;101189.16;5061036;28;48431;-73
2022/07/28 04:52:07;;;;;;;;;2.00;2.00;;;;;21.52;48.11;101178.41;5079506;28;45339;-71
2022/07/28 04:54:33;;;;;;;;;4.00;2.00;;;;;21.54;48.14;101184.66;5057644;28;45271;-71
2022/07/28 04:56:58;;;;;;;;;1.67;1.67;;;;;21.54;48.14;101192.72;5078531;28;45341;-70
2022/07/28 04:59:24;;;;;;;;;1.33;1.33;;;;;21.51;48.16;101188.28;5078733;28;63454;-72
2022/07/28 05:01:49;;;;;;;;;5.00;2.00;;;;;21.53;48.49;101191.84;5061626;28;45218;-72
2022/07/28 05:04:15;;;;;;;;;1.67;1.67;;;;;21.52;48.41;101192.75;5079513;28;45431;-71
2022/07/28 05:06:40;;;;;;;;;1.33;1.33;;;;;21.52;48.52;101189.16;5078529;28;57681;-73
2022/07/28 05:09:05;;;;;;;;;2.00;2.00;;;;;21.52;48.91;101190.06;5078244;28;67909;-70
2022/07/28 05:11:31;;;;;;;;;2.67;2.00;;;;;21.54;49.08;101190.03;5078936;28;48897;-71
2022/07/28 05:13:56;;;;;;;;;1.00;1.00;;;;;21.56;49.05;101202.47;5078501;28;60506;-70
2022/07/28 05:16:21;;;;;;;;;2.00;2.00;;;;;21.57;49.15;101198.88;5078285;28;62048;-71
2022/07/28 05:18:47;;;;;;;;;2.00;2.00;;;;;21.59;49.15;101201.53;5078453;28;66222;-72
2022/07/28 05:21:12;;;;;;;;;1.00;1.00;;;;;21.58;48.64;101183.63;5059923;28;66552;-71
2022/07/28 05:23:37;;;;;;;;;2.00;2.00;;;;;21.59;48.94;101194.34;5078327;28;64897;-73
2022/07/28 05:26:03;;;;;;;;;3.33;2.00;;;;;21.59;48.87;101201.53;5078831;28;47892;-71
2022/07/28 05:28:29;;;;;;;;;5.33;2.00;;;;;21.59;48.69;101197.03;5078643;28;45442;-71
2022/07/28 05:30:54;;;;;;;;;3.00;2.00;;;;;21.59;49.33;101191.66;5078956;28;45398;-71
2022/07/28 05:33:20;;;;;;;;;2.00;2.00;;;;;21.62;49.29;101190.66;5061723;28;45539;-70
2022/07/28 05:35:51;;;;;;;;;2.00;2.00;;;;;21.63;48.96;101195.13;5078487;28;47143;-70
2022/07/28 05:38:17;;;;;;;;;1.00;1.00;;;;;21.63;49.05;101192.44;5078602;28;46429;-71
2022/07/28 05:40:42;;;;;;;;;2.00;2.00;;;;;21.61;48.94;101189.78;5078154;28;64387;-71
2022/07/28 05:43:07;;;;;;;;;1.00;1.00;;;;;21.65;49.28;101190.59;5078875;28;45302;-71
2022/07/28 05:45:33;;;;;;;;;4.33;1.00;;;;;21.63;49.01;101184.38;5059845;28;56923;-71
2022/07/28 05:47:58;;;;;;;;;2.00;2.00;;;;;21.67;49.67;101191.41;5078308;28;45581;-71
2022/07/28 05:50:26;;;;;;;;;4.00;3.00;;;;;21.68;49.18;101191.41;5078536;28;45240;-70
2022/07/28 05:52:51;;;;;;;;;2.00;2.00;;;;;21.71;49.43;101187.72;5078772;28;45331;-71
2022/07/28 05:55:17;;;;;;;;;2.33;2.00;;;;;21.70;49.63;101178.78;5060128;28;45373;-72
2022/07/28 05:57:43;;;;;;;;;2.00;2.00;;;;;21.74;49.72;101182.25;5078759;28;46010;-72
2022/07/28 06:00:11;;;;;;;;;3.00;1.33;;;;;21.76;49.60;101183.09;5060230;28;45507;-72
2022/07/28 06:02:38;;;;;;;;;2.00;2.00;;;;;21.82;49.63;101188.28;5078495;28;45354;-70
2022/07/28 06:05:07;;;;;;;;;2.00;2.00;;;;;21.85;49.69;101176.56;5060537;28;45587;-70
2022/07/28 06:07:33;;;;;;;;;3.00;3.00;;;;;21.86;49.67;101183.69;5060265;28;47452;-71
2022/07/28 06:09:59;;;;;;;;;3.00;3.00;;;;;21.90;49.57;101175.50;5078160;28;45259;-71
2022/07/28 06:12:24;;;;;;;;;4.00;3.00;;;;;21.94;49.96;101184.34;5060103;28;45571;-71
2022/07/28 06:14:49;;;;;;;;;3.00;3.00;;;;;22.00;49.97;101194.03;5059960;28;56209;-71
2022/07/28 06:17:15;;;;;;;;;4.00;3.00;;;;;22.03;49.73;101192.13;5077785;28;45709;-71
2022/07/28 06:19:41;;;;;;;;;2.00;2.00;;;;;22.06;49.58;101191.16;5078217;28;45377;-71
2022/07/28 06:22:07;;;;;;;;;2.00;2.00;;;;;22.08;49.28;101189.31;5078097;28;45344;-72
2022/07/28 06:24:32;;;;;;;;;5.00;2.00;;;;;22.11;49.17;101202.69;5078168;28;45461;-70
2022/07/28 06:26:59;;;;;;;;;3.00;3.00;;;;;22.11;49.37;101189.25;5077640;28;52508;-71
2022/07/28 06:29:25;;;;;;;;;3.00;3.00;;;;;22.12;49.06;101191.88;5078061;28;45336;-71
2022/07/28 06:31:50;;;;;;;;;3.00;3.00;;;;;22.16;49.67;101190.88;5078356;28;45348;-71
2022/07/28 06:34:15;;;;;;;;;1.33;1.33;;;;;22.19;49.38;101184.50;5078129;28;45279;-70
2022/07/28 06:36:41;;;;;;;;;7.33;2.67;;;;;22.26;49.35;101194.13;5076871;28;68038;-71
2022/07/28 06:39:06;;;;;;;;;4.67;2.00;;;;;22.29;49.44;101191.34;5077614;28;51597;-71
2022/07/28 06:41:31;;;;;;;;;2.00;2.00;;;;;22.30;49.12;101189.53;5077883;28;45259;-70
2022/07/28 06:43:57;;;;;;;;;5.67;3.00;;;;;22.33;49.29;101182.25;5077333;28;57486;-71
2022/07/28 06:46:22;;;;;;;;;2.00;2.00;;;;;22.38;49.22;101193.75;5057753;28;46574;-73
2022/07/28 06:48:48;;;;;;;;;1.67;1.67;;;;;22.41;48.81;101193.63;5041943;28;59343;-71
2022/07/28 06:51:17;;;;;;;;;5.00;3.00;;;;;22.43;49.07;101190.91;5076774;27;64015;-70
2022/07/28 06:53:43;;;;;;;;;3.33;2.67;;;;;22.47;48.99;101192.56;5077386;28;45628;-70
2022/07/28 06:56:09;;;;;;;;;3.00;3.00;;;;;22.47;48.98;101188.06;5076938;28;45698;-72
2022/07/28 06:58:34;;;;;;;;;2.00;1.00;;;;;22.55;48.83;101192.31;5077645;28;45196;-71
2022/07/28 07:01:01;;;;;;;;;3.00;3.00;;;;;22.58;48.90;101193.09;5078006;28;45587;-71
2022/07/28 07:03:26;;;;;;;;;5.00;3.00;;;;;22.62;48.89;101188.50;5059907;28;45665;-71
2022/07/28 07:05:51;;;;;;;;;4.67;2.67;;;;;22.66;48.94;101184.78;5059053;28;46057;-71
2022/07/28 07:08:17;;;;;;;;;3.33;2.67;;;;;22.73;48.96;101186.31;5077050;28;47783;-71
2022/07/28 07:10:42;;;;;;;;;2.00;2.00;;;;;22.82;48.74;101194.09;5077696;28;45485;-71
2022/07/28 07:13:08;;;;;;;;;2.33;2.00;;;;;22.85;49.00;101195.78;5064357;28;45259;-72
2022/07/28 07:15:33;;;;;;;;;3.00;3.00;;;;;22.92;48.80;101205.47;5076828;28;46803;-71
2022/07/28 07:17:58;;;;;;;;;3.00;3.00;;;;;22.98;48.75;101205.25;5076704;28;61423;-71
2022/07/28 07:20:24;;;;;;;;;7.00;4.00;;;;;23.02;48.54;101204.22;5077186;28;45529;-71
2022/07/28 07:22:49;;;;;;;;;2.67;2.67;;;;;23.04;48.33;101205.03;5076567;28;57119;-71
2022/07/28 07:25:18;;;;;;;;;4.33;3.00;;;;;23.04;48.22;101199.66;5076423;28;61011;-71
2022/07/28 07:27:44;;;;;;;;;4.00;2.67;;;;;23.10;48.36;101193.16;5077302;28;45253;-71
2022/07/28 07:30:10;;;;;;;;;3.00;3.00;;;;;23.15;48.46;101196.56;5077223;28;45426;-72
2022/07/28 07:32:36;;;;;;;;;3.33;3.00;;;;;23.21;48.23;101202.63;5077300;27;45412;-71
2022/07/28 07:35:03;;;;;;;;;4.00;4.00;;;;;23.26;48.09;101203.34;5058796;28;46592;-72
2022/07/28 07:37:31;;;;;;;;;4.67;4.67;;;;;23.31;48.00;101205.00;5076963;28;45461;-71
2022/07/28 07:39:57;;;;;;;;;5.00;4.00;;;;;23.34;47.96;101199.50;5059448;28;45545;-71
2022/07/28 07:42:22;;;;;;;;;4.00;4.00;;;;;23.38;48.00;101203.81;5077055;28;45204;-71
2022/07/28 07:44:47;;;;;;;;;4.00;4.00;;;;;23.42;47.71;101203.66;5076861;27;46431;-71
2022/07/28 07:47:13;;;;;;;;;4.33;4.00;;;;;23.50;47.85;101204.28;5058206;28;52064;-71
2022/07/28 07:49:38;;;;;;;;;5.33;3.00;;;;;23.56;47.58;101202.28;5076623;28;45450;-71
2022/07/28 07:52:04;;;;;;;;;4.00;4.00;;;;;23.61;47.21;101194.91;5077190;28;45368;-70
2022/07/28 07:54:29;;;;;;;;;5.00;4.00;;;;;23.68;47.60;101197.34;5076148;28;45604;-72
2022/07/28 07:56:54;;;;;;;;;7.67;4.67;;;;;23.73;47.08;101194.47;5076664;28;53612;-72
2022/07/28 07:59:20;;;;;;;;;6.00;3.33;;;;;23.80;47.45;101193.31;5079760;28;59329;-71
2022/07/28 08:01:45;;;;;;;;;8.33;5.67;;;;;23.82;46.96;101191.44;5079787;28;56487;-72
2022/07/28 08:04:10;;;;;;;;;3.00;3.00;;;;;23.83;46.70;101187.81;5080032;28;45295;-71
2022/07/28 08:06:36;;;;;;;;;6.00;4.00;;;;;23.84;47.04;101188.69;5061796;28;45327;-71
2022/07/28 08:09:01;;;;;;;;;8.00;5.00;;;;;23.82;46.77;101182.47;5079844;28;54526;-72
2022/07/28 08:11:27;;;;;;;;;4.00;4.00;;;;;23.76;47.54;101172.81;5080041;28;45547;-71
2022/07/28 08:13:52;;;;;;;;;4.00;4.00;;;;;23.76;47.04;101187.16;5080119;28;50816;-71
2022/07/28 08:16:17;;;;;;;;;3.00;3.00;;;;;23.76;47.13;101189.00;5061659;28;45235;-72
2022/07/28 08:18:43;;;;;;;;;7.00;4.00;;;;;23.78;47.41;101187.09;5061495;28;55789;-71
2022/07/28 08:21:09;;;;;;;;;3.67;2.00;;;;;23.85;47.19;101191.31;5079869;28;45612;-70
2022/07/28 08:23:34;;;;;;;;;5.67;3.67;;;;;23.90;47.50;101173.13;5079733;28;46512;-71
2022/07/28 08:26:01;;;;;;;;;3.67;3.67;;;;;23.99;46.84;101188.09;5080066;28;45382;-72
2022/07/28 08:28:26;;;;;;;;;4.67;4.67;;;;;24.01;46.51;101181.69;5079937;28;45422;-72
2022/07/28 08:30:52;;;;;;;;;6.00;4.00;;;;;24.07;47.09;101185.09;5080223;28;45400;-73
2022/07/28 08:33:20;;;;;;;;;5.00;3.33;;;;;24.09;46.70;101181.41;5078904;28;61736;-72
2022/07/28 08:35:46;;;;;;;;;3.67;3.67;;;;;24.11;46.48;101181.31;5079576;28;45303;-72
2022/07/28 08:38:11;;;;;;;;;8.00;5.33;;;;;24.08;46.43;101173.38;5079874;28;45304;-72
2022/07/28 08:40:37;;;;;;;;;4.33;4.33;;;;;24.09;46.61;101176.00;5061639;28;45628;-72
2022/07/28 08:43:10;;;;;;;;;4.00;4.00;;;;;24.12;46.77;101165.06;5061686;28;45776;-72
2022/07/28 08:45:38;;;;;;;;;7.67;4.00;;;;;24.16;46.62;101177.50;5061212;28;45461;-70
2022/07/28 08:48:03;;;;;;;;;5.00;5.00;;;;;24.19;46.47;101176.53;5200952;22;45549;-71
2022/07/28 08:50:30;;;;;;;;;9.00;6.00;;;;;24.20;45.93;101175.56;5061344;28;45446;-71
2022/07/28 08:52:56;;;;;;;;;4.67;4.67;;;;;24.17;46.32;101170.28;5060977;28;49764;-71
2022/07/28 08:55:23;;;;;;;;;6.00;3.00;;;;;24.18;45.75;101177.44;5060069;28;63707;-71
2022/07/28 08:57:49;;;;;;;;;8.00;4.33;;;;;24.15;46.06;101170.34;5041266;28;45388;-71
2022/07/28 09:00:15;;;;;;;;;8.67;3.00;;;;;24.17;45.83;101173.00;5079663;28;45444;-71
2022/07/28 09:02:41;;;;;;;;;8.33;5.67;;;;;24.14;46.14;101168.59;5079056;28;46173;-71
2022/07/28 09:05:07;;;;;;;;;8.00;6.00;;;;;24.15;46.26;101170.34;5079258;28;45374;-71
2022/07/28 09:07:36;;;;;;;;;6.00;5.00;;;;;24.16;46.27;101169.41;5060916;28;45380;-70
2022/07/28 09:10:04;;;;;;;;;6.33;4.00;;;;;24.20;46.59;101168.34;5061244;28;45308;-70
2022/07/28 09:12:33;;;;;;;;;4.67;4.00;;;;;24.24;46.33;101164.59;5060987;28;45966;-70
2022/07/28 09:15:03;;;;;;;;;6.00;3.67;;;;;24.27;46.50;101167.16;5061011;28;45546;-72
2022/07/28 09:17:29;;;;;;;;;6.00;5.33;;;;;24.30;46.40;101163.47;5078958;28;45393;-71
2022/07/28 09:19:55;;;;;;;;;4.67;4.00;;;;;24.33;46.24;101160.63;5072345;28;46680;-71
2022/07/28 09:22:20;;;;;;;;;6.67;6.00;;;;;24.38;46.31;101164.06;5060639;28;50452;-70
2022/07/28 09:24:46;;;;;;;;;6.00;4.33;;;;;24.46;46.68;101175.44;5061043;28;45461;-73
2022/07/28 09:27:13;;;;;;;;;3.00;3.00;;;;;24.52;45.63;101169.78;5077929;28;65434;-70
2022/07/28 09:29:41;;;;;;;;;5.33;4.00;;;;;24.59;45.78;101167.69;5079171;28;45442;-70
2022/07/28 09:32:07;;;;;;;;;5.00;5.00;;;;;24.67;45.43;101167.38;5078590;28;46657;-71
2022/07/28 09:34:44;;;;;;;;;6.67;4.00;;;;;24.72;45.13;101159.97;5078901;28;45347;-72
2022/07/28 09:37:17;;;;;;;;;3.67;3.67;;;;;24.75;45.36;101162.50;5078999;28;45478;-71
2022/07/28 09:39:43;;;;;;;;;5.00;4.00;;;;;24.80;45.49;101158.66;5079013;28;45403;-70
2022/07/28 09:42:08;;;;;;;;;6.00;4.33;;;;;24.86;44.78;101152.13;5060630;28;45590;-71
2022/07/28 09:44:34;;;;;;;;;4.33;3.00;;;;;24.97;45.32;101157.06;5060690;28;45515;-71
2022/07/28 09:46:59;;;;;;;;;4.00;3.00;;;;;25.03;44.55;101149.56;5059660;28;58554;-71
2022/07/28 09:49:41;;;;;;;;;5.00;3.00;;;;;25.15;43.75;101140.09;5059781;28;61112;-70
2022/07/28 09:52:07;;;;;;;;;3.00;3.00;;;;;25.26;44.45;101150.41;5078643;28;46593;-70
2022/07/28 09:54:32;;;;;;;;;5.33;4.00;;;;;25.28;44.17;101130.47;5077812;28;45405;-71
2022/07/28 09:56:57;;;;;;;;;3.00;3.00;;;;;25.40;42.96;101141.66;5077624;28;60085;-72
2022/07/28 09:59:23;;;;;;;;;6.33;4.00;;;;;25.47;43.06;101135.91;5043648;28;45514;-71
2022/07/28 10:01:51;;;;;;;;;2.67;2.67;;;;;25.53;43.13;101132.94;5078315;28;45547;-72
2022/07/28 10:04:30;;;;;;;;;4.00;3.00;;;;;25.64;42.45;101136.97;5059991;28;45347;-72
2022/07/28 10:07:05;;;;;;;;;6.00;4.33;;;;;25.72;42.14;101129.34;5078246;28;45263;-71
2022/07/28 10:09:31;;;;;;;;;5.00;3.00;;;;;25.81;42.01;101127.13;5078181;28;45477;-71
2022/07/28 10:12:15;;;;;;;;;3.00;3.00;;;;;25.89;42.04;101123.16;5060208;28;46600;-72
2022/07/28 10:14:41;;;;;;;;;2.33;2.33;;;;;25.90;41.32;101124.94;5078153;28;45330;-71
2022/07/28 10:17:08;;;;;;;;;2.67;2.67;;;;;25.93;41.09;101122.94;5078152;28;45497;-71
2022/07/28 10:19:34;;;;;;;;;2.00;2.00;;;;;26.04;41.46;101135.94;5077966;28;45534;-72
2022/07/28 10:22:00;;;;;;;;;3.00;3.00;;;;;26.07;40.53;101127.69;5059654;28;47536;-70
2022/07/28 10:24:28;;;;;;;;;2.67;2.67;;;;;26.16;40.72;101129.09;5059157;28;67480;-72
2022/07/28 10:26:55;;;;;;;;;2.67;2.33;;;;;26.22;40.41;101120.66;5077953;28;45359;-72
2022/07/28 10:29:21;;;;;;;;;4.00;3.67;;;;;26.31;41.24;101118.38;5060032;28;45556;-71
2022/07/28 10:31:52;;;;;;;;;5.00;3.00;;;;;26.42;41.44;101120.59;5059691;28;45517;-71
2022/07/28 10:34:22;;;;;;;;;2.00;2.00;;;;;26.52;40.21;101119.13;5059735;28;45338;-70
2022/07/28 10:36:53;;;;;;;;;2.00;2.00;;;;;26.56;40.88;101115.31;5059815;28;45338;-71
2022/07/28 10:39:22;;;;;;;;;3.00;3.00;;;;;26.64;40.68;101118.53;5060046;28;45414;-71
2022/07/28 10:41:48;;;;;;;;;5.33;4.00;;;;;26.72;40.69;101114.53;5077672;28;45831;-71
2022/07/28 10:44:13;;;;;;;;;4.33;3.00;;;;;26.77;40.15;101120.59;5059461;28;47114;-71
2022/07/28 10:46:42;;;;;;;;;2.67;2.67;;;;;26.80;40.28;101118.63;5077433;28;45140;-72
2022/07/28 10:49:09;;;;;;;;;4.00;2.00;;;;;26.84;40.00;101116.59;5077525;28;45540;-71
2022/07/28 10:51:36;;;;;;;;;2.00;2.00;;;;;26.85;40.21;101119.25;5059456;28;46861;-70
2022/07/28 10:54:28;;;;;;;;;3.33;3.33;;;;;26.94;39.96;101111.56;5059072;28;45345;-71
2022/07/28 10:56:55;;;;;;;;;2.00;2.00;;;;;26.95;40.16;101116.03;5037834;28;45478;-71
2022/07/28 10:59:39;;;;;;;;;3.00;3.00;;;;;27.02;39.85;101112.94;5059503;28;45490;-71
2022/07/28 11:02:05;;;;;;;;;5.00;3.00;;;;;27.05;39.44;101109.16;5077415;28;46931;-70
2022/07/28 11:04:39;;;;;;;;;3.00;3.00;;;;;27.09;39.33;101108.97;5058319;28;46143;-72
2022/07/28 11:07:12;;;;;;;;;3.67;3.00;;;;;27.16;38.88;101104.06;5077303;28;45348;-71
2022/07/28 11:09:38;;;;;;;;;3.33;2.67;;;;;27.23;38.85;101104.66;5077403;28;45356;-70
2022/07/28 11:12:04;;;;;;;;;3.00;3.00;;;;;27.34;38.95;101110.38;5077443;28;46532;-70
2022/07/28 11:14:36;;;;;;;;;3.00;3.00;;;;;27.46;39.10;101097.97;5059150;28;45884;-71
2022/07/28 11:17:05;;;;;;;;;6.00;3.33;;;;;27.59;38.63;101108.06;5077046;28;45321;-70
2022/07/28 11:19:42;;;;;;;;;2.00;2.00;;;;;27.72;38.87;101110.09;5077100;28;45430;-71
2022/07/28 11:22:13;;;;;;;;;2.00;2.00;;;;;27.82;38.27;101109.50;5077164;28;45731;-71
2022/07/28 11:25:03;;;;;;;;;3.00;1.67;;;;;27.98;38.45;101106.78;5077156;28;45312;-71
2022/07/28 11:27:50;;;;;;;;;3.33;3.33;;;;;28.14;37.74;101099.50;5077179;28;45156;-70
2022/07/28 11:30:30;;;;;;;;;3.67;2.00;;;;;28.29;37.87;101103.19;5077258;28;45291;-71